Orbital elements of COSMOS 339
| Launched | 24 April 1970 |
| Flight ended | – |
| Launch site | Plesetsk Missile and Space Complex, Russia |
| Owner | Commonwealth of Independent States (former USSR) |
| NORAD ID | 4386 |
| Date fetched |
Epoch osculation |
Inc. [°] |
Ecc. | RA asc node [hr] |
Arg Peri. [°] |
Mean anom [°] |
Mean motion [rev/day] |
Abs. mag |
| Date fetched |
Epoch osculation |
Inc. [°] |
Ecc. | RA asc node [hr] |
Arg Peri. [°] |
Mean anom [°] |
Mean motion [rev/day] |
Abs. mag |
| 2026 May 07 17:58 | 2026 May 05 11:56:39 | 74.0291 | 0.00157 | 13.1519 | 219.1166 | 152.0461 | 12.51875 | – |
| 2026 May 06 17:57 | 2026 May 05 11:56:39 | 74.0291 | 0.00157 | 13.1519 | 219.1166 | 152.0461 | 12.51875 | – |
| 2026 May 05 17:57 | 2026 May 05 11:56:39 | 74.0291 | 0.00157 | 13.1519 | 219.1166 | 152.0461 | 12.51875 | – |
| 2026 May 04 17:57 | 2026 Apr 30 15:43:16 | 74.0294 | 0.00158 | 13.5824 | 226.1593 | 152.0461 | 12.51875 | – |
| 2026 May 03 17:57 | 2026 Apr 30 15:43:16 | 74.0294 | 0.00158 | 13.5824 | 226.1593 | 152.0461 | 12.51875 | – |
| 2026 May 02 17:57 | 2026 Apr 30 15:43:16 | 74.0294 | 0.00158 | 13.5824 | 226.1593 | 152.0461 | 12.51875 | – |
| 2026 May 01 17:56 | 2026 Apr 30 15:43:16 | 74.0294 | 0.00158 | 13.5824 | 226.1593 | 152.0461 | 12.51875 | – |
| 2026 Apr 30 17:56 | 2026 Apr 30 15:43:16 | 74.0294 | 0.00158 | 13.5824 | 226.1593 | 152.0461 | 12.51875 | – |
| 2026 Apr 29 17:57 | 2026 Apr 24 07:42:11 | 74.0298 | 0.00158 | 14.1455 | 235.3547 | 152.0461 | 12.51875 | – |
| 2026 Apr 28 17:56 | 2026 Apr 24 07:42:11 | 74.0298 | 0.00158 | 14.1455 | 235.3547 | 152.0461 | 12.51875 | – |
| 2026 Apr 27 17:58 | 2026 Apr 24 07:42:11 | 74.0298 | 0.00158 | 14.1455 | 235.3547 | 152.0461 | 12.51875 | – |
| 2026 Apr 26 17:58 | 2026 Apr 24 07:42:11 | 74.0298 | 0.00158 | 14.1455 | 235.3547 | 152.0461 | 12.51875 | – |
| 2026 Apr 25 17:58 | 2026 Apr 24 07:42:11 | 74.0298 | 0.00158 | 14.1455 | 235.3547 | 152.0461 | 12.51875 | – |
| 2026 Apr 24 17:59 | 2026 Apr 24 07:42:11 | 74.0298 | 0.00158 | 14.1455 | 235.3547 | 152.0461 | 12.51875 | – |
| 2026 Apr 23 17:57 | 2026 Apr 19 06:43:39 | 74.0295 | 0.00158 | 14.5935 | 242.6701 | 152.0461 | 12.51875 | – |
| 2026 Apr 22 17:57 | 2026 Apr 19 06:43:39 | 74.0295 | 0.00158 | 14.5935 | 242.6701 | 152.0461 | 12.51875 | – |
| 2026 Apr 21 17:57 | 2026 Apr 19 06:43:39 | 74.0295 | 0.00158 | 14.5935 | 242.6701 | 152.0461 | 12.51875 | – |
| 2026 Apr 20 17:57 | 2026 Apr 19 06:43:39 | 74.0295 | 0.00158 | 14.5935 | 242.6701 | 152.0461 | 12.51875 | – |
| 2026 Apr 19 17:58 | 2026 Apr 19 06:43:39 | 74.0295 | 0.00158 | 14.5935 | 242.6701 | 152.0461 | 12.51875 | – |
| 2026 Apr 18 17:56 | 2026 Apr 13 06:52:01 | 74.0289 | 0.00158 | 15.1264 | 251.3474 | 152.0461 | 12.51875 | – |
| 2026 Apr 16 17:57 | 2026 Apr 13 06:52:01 | 74.0289 | 0.00158 | 15.1264 | 251.3474 | 152.0461 | 12.51875 | – |
| 2026 Apr 14 17:57 | 2026 Apr 13 06:52:01 | 74.0289 | 0.00158 | 15.1264 | 251.3474 | 152.0461 | 12.51875 | – |
| 2026 Apr 13 17:57 | 2026 Apr 13 06:52:01 | 74.0289 | 0.00158 | 15.1264 | 251.3474 | 152.0461 | 12.51875 | – |
| 2026 Apr 12 17:57 | 2026 Apr 08 15:34:31 | 74.0283 | 0.00158 | 15.5387 | 258.0758 | 152.0461 | 12.51875 | – |
| 2026 Apr 11 17:57 | 2026 Apr 08 15:34:31 | 74.0283 | 0.00158 | 15.5387 | 258.0758 | 152.0461 | 12.51875 | – |
| 2026 Apr 10 17:58 | 2026 Apr 08 15:34:31 | 74.0283 | 0.00158 | 15.5387 | 258.0758 | 152.0461 | 12.51875 | – |